Halfway's Hourly Summary for Sunday, July 8, 2018
Hour Temp
(f)
RH
(%)
Solar Rad.
(MJ/m2)
Rainfall
(in)
Wind
(mph)
7/8/2018 12:00 AM 71 72 0 0 0.89
7/8/2018 1:00 AM 70 73 0 0 0.98
7/8/2018 2:00 AM 70 73 0 0 2.8
7/8/2018 3:00 AM 68 79 0 0 2.14
7/8/2018 4:00 AM 68 81 0 0 1.56
7/8/2018 5:00 AM 67 84 0 0 0.95
7/8/2018 6:00 AM 67 83 0 0 0.86
7/8/2018 7:00 AM 66 86 0.01 0 2.38
7/8/2018 8:00 AM 67 79 0.3 0 3.18
7/8/2018 9:00 AM 70 74 0.68 0 3.65
7/8/2018 10:00 AM 73 62 1.3 0 2.27
7/8/2018 11:00 AM 79 46 2.69 0 2.81
7/8/2018 12:00 PM 82 45 3.14 0 4.59
7/8/2018 1:00 PM 82 41 2.65 0 4.36
7/8/2018 2:00 PM 84 36 2.6 0 5.92
7/8/2018 3:00 PM 81 41 1.53 0 7.11
7/8/2018 4:00 PM 83 38 1.89 0 4.12
7/8/2018 5:00 PM 86 30 2.9 0 5.45
7/8/2018 6:00 PM 86 34 1.27 0 4.69
7/8/2018 7:00 PM 82 41 0.79 0 7.33
7/8/2018 8:00 PM 82 40 0.65 0 5.59
7/8/2018 9:00 PM 81 41 0.25 0 5.03
7/8/2018 10:00 PM 77 46 0 0 9.27
7/8/2018 11:00 PM 75 51 0 0 9.06
Data Summary 75 57 22.65 0.00 4.04